Pagina principale
METAR-TAF:

METAR-TAF

Aeroporti :

Aeroporto di Algeri-Houari Boumédiène

Algeri, Algeria

latitudine: 36-43N, longitudine: 003-15E, altezza: 25 m

Osservazione

Il bollettino è stato emesso 11 minuti fa, alle 14:30 UTC
Vento 2 kt da direzioni variabili
Temperature 21°C
Umidità 26%
Pressione 1019 hPa
Visibilità 10 km o più
nessuna nube inferiore a 1500 m e nessun cumulonembo

METAR: DAAG 181430Z VRB02KT CAVOK 21/01 Q1019

Ora: 15:41 (14:41 UTC)

Previsione

Il bollettino è stato emesso 3 ore e 41 minuti fa, alle 11:00 UTC
Previsione valida dal 18 alle 12 UTC al 19 alle 12 UTC
Vento 10 kt da sud-ovest
Visibilità 10 km o più
nessuna nube inferiore a 1500 m e nessun cumulonembo
Evoluzione graduale
dal 18 alle 18 UTC al 18 alle 21 UTC
Vento 2 kt da direzioni variabili
Evoluzione graduale
dal 19 alle 09 UTC al 19 alle 12 UTC
Vento 12 kt da nord

TAF: DAAG 181100Z 1812/1912 22010KT CAVOK BECMG 1818/1821 VRB02KT BECMG 1909/1912 35012KT

Osservazioni e previsioni meteorologiche di più di 4000 aeroporti (messaggi METAR e TAF).

Le stazioni disponibili sono rappresentate dai dischi gialli e rossi sulla carta.

Puntare il mouse per vedere il nome della stazione.

Clicca sopra per visualizzare le osservazioni e previsioni meteorologiche.

Per cambiare la mappa : fare clic sui pulsanti verdi con una croce nera per ingrandire, il pulsante verde con un trattino per diminuire, o sulla freccia verde per le mappe adiacenti.


METAR-TAF: